sensor_id;sensor_type;location;lat;lon;timestamp;P1;durP1;ratioP1;P2;durP2;ratioP2
52978;SDS011;63430;53.186;6.598;2023-08-06T00:01:20;270.67;;;257.50;;
52978;SDS011;63430;53.186;6.598;2023-08-06T00:05:27;199.88;;;190.68;;
52978;SDS011;63430;53.186;6.598;2023-08-06T00:07:29;301.10;;;285.70;;
52978;SDS011;63430;53.186;6.598;2023-08-06T00:09:32;333.10;;;315.90;;
52978;SDS011;63430;53.186;6.598;2023-08-06T00:11:34;276.10;;;262.58;;
52978;SDS011;63430;53.186;6.598;2023-08-06T00:13:37;248.60;;;236.38;;
52978;SDS011;63430;53.186;6.598;2023-08-06T00:15:42;339.75;;;322.10;;
52978;SDS011;63430;53.186;6.598;2023-08-06T00:17:45;264.63;;;251.45;;
52978;SDS011;63430;53.186;6.598;2023-08-06T00:19:48;250.85;;;238.65;;
52978;SDS011;63430;53.186;6.598;2023-08-06T00:21:53;334.20;;;316.95;;
52978;SDS011;63430;53.186;6.598;2023-08-06T00:23:55;244.80;;;232.68;;
52978;SDS011;63430;53.186;6.598;2023-08-06T00:25:58;275.02;;;261.42;;
52978;SDS011;63430;53.186;6.598;2023-08-06T00:28:01;248.95;;;236.43;;
52978;SDS011;63430;53.186;6.598;2023-08-06T00:30:04;276.67;;;262.85;;
52978;SDS011;63430;53.186;6.598;2023-08-06T00:32:10;215.13;;;204.55;;
52978;SDS011;63430;53.186;6.598;2023-08-06T00:34:13;181.75;;;173.30;;
52978;SDS011;63430;53.186;6.598;2023-08-06T00:36:16;229.60;;;218.63;;
52978;SDS011;63430;53.186;6.598;2023-08-06T00:38:19;177.98;;;169.68;;
52978;SDS011;63430;53.186;6.598;2023-08-06T00:40:22;191.45;;;182.27;;
52978;SDS011;63430;53.186;6.598;2023-08-06T00:42:24;260.77;;;247.95;;
52978;SDS011;63430;53.186;6.598;2023-08-06T00:44:27;189.40;;;180.63;;
52978;SDS011;63430;53.186;6.598;2023-08-06T00:46:29;191.35;;;182.43;;
52978;SDS011;63430;53.186;6.598;2023-08-06T00:48:36;229.93;;;218.77;;
52978;SDS011;63430;53.186;6.598;2023-08-06T00:50:38;225.60;;;214.32;;
52978;SDS011;63430;53.186;6.598;2023-08-06T00:52:41;192.45;;;183.25;;
52978;SDS011;63430;53.186;6.598;2023-08-06T00:54:43;234.55;;;223.07;;
52978;SDS011;63430;53.186;6.598;2023-08-06T00:56:46;202.98;;;193.00;;
52978;SDS011;63430;53.186;6.598;2023-08-06T00:58:49;290.27;;;275.50;;
52978;SDS011;63430;53.186;6.598;2023-08-06T01:00:53;195.15;;;185.63;;
52978;SDS011;63430;53.186;6.598;2023-08-06T01:02:56;208.57;;;198.48;;
52978;SDS011;63430;53.186;6.598;2023-08-06T01:05:01;161.90;;;154.35;;
52978;SDS011;63430;53.186;6.598;2023-08-06T01:07:06;186.68;;;177.60;;
52978;SDS011;63430;53.186;6.598;2023-08-06T01:09:21;178.65;;;170.27;;
52978;SDS011;63430;53.186;6.598;2023-08-06T01:11:33;152.25;;;145.32;;
52978;SDS011;63430;53.186;6.598;2023-08-06T01:13:43;151.70;;;144.50;;
52978;SDS011;63430;53.186;6.598;2023-08-06T01:15:49;163.70;;;155.93;;
52978;SDS011;63430;53.186;6.598;2023-08-06T01:17:54;233.98;;;222.52;;
52978;SDS011;63430;53.186;6.598;2023-08-06T01:19:57;183.52;;;174.68;;
52978;SDS011;63430;53.186;6.598;2023-08-06T01:22:02;223.68;;;212.75;;
52978;SDS011;63430;53.186;6.598;2023-08-06T01:24:07;273.88;;;260.15;;
52978;SDS011;63430;53.186;6.598;2023-08-06T01:26:11;345.33;;;326.45;;
52978;SDS011;63430;53.186;6.598;2023-08-06T01:28:18;280.95;;;266.35;;
52978;SDS011;63430;53.186;6.598;2023-08-06T01:30:29;325.27;;;307.83;;
52978;SDS011;63430;53.186;6.598;2023-08-06T01:32:40;222.25;;;211.13;;
52978;SDS011;63430;53.186;6.598;2023-08-06T01:34:46;299.25;;;283.70;;
52978;SDS011;63430;53.186;6.598;2023-08-06T01:36:51;319.42;;;302.50;;
52978;SDS011;63430;53.186;6.598;2023-08-06T01:38:57;252.25;;;239.40;;
52978;SDS011;63430;53.186;6.598;2023-08-06T01:41:00;226.80;;;215.40;;
52978;SDS011;63430;53.186;6.598;2023-08-06T01:43:02;334.63;;;317.05;;
52978;SDS011;63430;53.186;6.598;2023-08-06T01:45:05;272.63;;;258.33;;
52978;SDS011;63430;53.186;6.598;2023-08-06T01:47:09;358.50;;;339.13;;
52978;SDS011;63430;53.186;6.598;2023-08-06T01:49:12;295.23;;;279.17;;
52978;SDS011;63430;53.186;6.598;2023-08-06T01:51:14;276.48;;;261.98;;
52978;SDS011;63430;53.186;6.598;2023-08-06T01:53:18;343.00;;;324.08;;
52978;SDS011;63430;53.186;6.598;2023-08-06T01:55:23;339.60;;;321.20;;
52978;SDS011;63430;53.186;6.598;2023-08-06T01:57:26;281.80;;;266.50;;
52978;SDS011;63430;53.186;6.598;2023-08-06T01:59:28;325.73;;;308.45;;
52978;SDS011;63430;53.186;6.598;2023-08-06T02:01:31;304.65;;;288.30;;
52978;SDS011;63430;53.186;6.598;2023-08-06T02:03:34;282.52;;;267.73;;
52978;SDS011;63430;53.186;6.598;2023-08-06T02:05:36;343.98;;;325.48;;
52978;SDS011;63430;53.186;6.598;2023-08-06T02:07:40;336.25;;;318.38;;
52978;SDS011;63430;53.186;6.598;2023-08-06T02:09:43;319.05;;;301.83;;
52978;SDS011;63430;53.186;6.598;2023-08-06T02:11:51;268.45;;;254.32;;
52978;SDS011;63430;53.186;6.598;2023-08-06T02:13:54;300.98;;;285.15;;
52978;SDS011;63430;53.186;6.598;2023-08-06T02:15:57;221.75;;;210.10;;
52978;SDS011;63430;53.186;6.598;2023-08-06T02:18:00;213.07;;;202.00;;
52978;SDS011;63430;53.186;6.598;2023-08-06T02:20:03;247.75;;;234.93;;
52978;SDS011;63430;53.186;6.598;2023-08-06T02:22:06;192.70;;;182.40;;
52978;SDS011;63430;53.186;6.598;2023-08-06T02:24:09;208.73;;;197.93;;
52978;SDS011;63430;53.186;6.598;2023-08-06T02:26:12;209.90;;;199.30;;
52978;SDS011;63430;53.186;6.598;2023-08-06T02:28:17;178.35;;;168.98;;
52978;SDS011;63430;53.186;6.598;2023-08-06T02:30:19;205.85;;;195.18;;
52978;SDS011;63430;53.186;6.598;2023-08-06T02:32:22;242.18;;;229.38;;
52978;SDS011;63430;53.186;6.598;2023-08-06T02:34:24;231.40;;;219.38;;
52978;SDS011;63430;53.186;6.598;2023-08-06T02:36:27;252.93;;;239.38;;
52978;SDS011;63430;53.186;6.598;2023-08-06T02:38:33;236.02;;;223.93;;
52978;SDS011;63430;53.186;6.598;2023-08-06T02:40:36;233.70;;;221.00;;
52978;SDS011;63430;53.186;6.598;2023-08-06T02:42:45;262.13;;;248.18;;
52978;SDS011;63430;53.186;6.598;2023-08-06T02:44:51;248.55;;;235.27;;
52978;SDS011;63430;53.186;6.598;2023-08-06T02:46:53;202.30;;;191.52;;
52978;SDS011;63430;53.186;6.598;2023-08-06T02:48:56;290.10;;;274.73;;
52978;SDS011;63430;53.186;6.598;2023-08-06T02:50:59;165.77;;;156.98;;
52978;SDS011;63430;53.186;6.598;2023-08-06T02:53:04;240.88;;;228.27;;
52978;SDS011;63430;53.186;6.598;2023-08-06T02:55:07;280.53;;;265.47;;
52978;SDS011;63430;53.186;6.598;2023-08-06T02:57:15;173.90;;;164.73;;
52978;SDS011;63430;53.186;6.598;2023-08-06T02:59:17;141.32;;;134.10;;
52978;SDS011;63430;53.186;6.598;2023-08-06T03:01:38;160.40;;;152.23;;
52978;SDS011;63430;53.186;6.598;2023-08-06T03:03:50;192.70;;;182.77;;
52978;SDS011;63430;53.186;6.598;2023-08-06T03:05:59;141.82;;;134.55;;
52978;SDS011;63430;53.186;6.598;2023-08-06T03:08:11;189.90;;;180.10;;
52978;SDS011;63430;53.186;6.598;2023-08-06T03:10:14;210.77;;;199.30;;
52978;SDS011;63430;53.186;6.598;2023-08-06T03:12:17;212.35;;;201.07;;
52978;SDS011;63430;53.186;6.598;2023-08-06T03:14:20;216.48;;;205.35;;
52978;SDS011;63430;53.186;6.598;2023-08-06T03:16:23;254.40;;;241.55;;
52978;SDS011;63430;53.186;6.598;2023-08-06T03:18:29;182.32;;;172.55;;
52978;SDS011;63430;53.186;6.598;2023-08-06T03:20:36;189.48;;;179.52;;
52978;SDS011;63430;53.186;6.598;2023-08-06T03:22:39;162.10;;;153.73;;
52978;SDS011;63430;53.186;6.598;2023-08-06T03:24:42;213.77;;;202.63;;
52978;SDS011;63430;53.186;6.598;2023-08-06T03:26:45;201.77;;;191.32;;
52978;SDS011;63430;53.186;6.598;2023-08-06T03:28:48;184.65;;;175.10;;
52978;SDS011;63430;53.186;6.598;2023-08-06T03:30:58;241.23;;;228.00;;
52978;SDS011;63430;53.186;6.598;2023-08-06T03:33:05;237.15;;;224.57;;
52978;SDS011;63430;53.186;6.598;2023-08-06T03:35:11;246.68;;;233.93;;
52978;SDS011;63430;53.186;6.598;2023-08-06T03:37:13;252.38;;;239.27;;
52978;SDS011;63430;53.186;6.598;2023-08-06T03:39:16;259.75;;;246.25;;
52978;SDS011;63430;53.186;6.598;2023-08-06T03:41:19;254.90;;;241.68;;
52978;SDS011;63430;53.186;6.598;2023-08-06T03:43:21;257.80;;;244.77;;
52978;SDS011;63430;53.186;6.598;2023-08-06T03:45:26;257.27;;;244.10;;
52978;SDS011;63430;53.186;6.598;2023-08-06T03:47:29;254.07;;;241.05;;
52978;SDS011;63430;53.186;6.598;2023-08-06T03:49:31;208.45;;;197.73;;
52978;SDS011;63430;53.186;6.598;2023-08-06T03:51:37;197.73;;;187.52;;
52978;SDS011;63430;53.186;6.598;2023-08-06T03:53:39;248.07;;;235.23;;
52978;SDS011;63430;53.186;6.598;2023-08-06T03:55:42;262.02;;;248.70;;
52978;SDS011;63430;53.186;6.598;2023-08-06T03:57:45;236.40;;;224.25;;
52978;SDS011;63430;53.186;6.598;2023-08-06T03:59:47;261.15;;;247.68;;
52978;SDS011;63430;53.186;6.598;2023-08-06T04:01:57;250.20;;;237.73;;
52978;SDS011;63430;53.186;6.598;2023-08-06T04:04:00;184.05;;;174.60;;
52978;SDS011;63430;53.186;6.598;2023-08-06T04:06:02;232.88;;;221.13;;
52978;SDS011;63430;53.186;6.598;2023-08-06T04:08:08;263.20;;;249.80;;
52978;SDS011;63430;53.186;6.598;2023-08-06T04:10:11;260.48;;;247.02;;
52978;SDS011;63430;53.186;6.598;2023-08-06T04:12:13;253.45;;;240.68;;
52978;SDS011;63430;53.186;6.598;2023-08-06T04:14:16;222.63;;;211.45;;
52978;SDS011;63430;53.186;6.598;2023-08-06T04:16:19;251.80;;;239.35;;
52978;SDS011;63430;53.186;6.598;2023-08-06T04:18:21;185.70;;;176.02;;
52978;SDS011;63430;53.186;6.598;2023-08-06T04:20:26;174.93;;;166.15;;
52978;SDS011;63430;53.186;6.598;2023-08-06T04:22:29;226.30;;;214.88;;
52978;SDS011;63430;53.186;6.598;2023-08-06T04:24:34;187.23;;;178.07;;
52978;SDS011;63430;53.186;6.598;2023-08-06T04:26:36;187.48;;;178.13;;
52978;SDS011;63430;53.186;6.598;2023-08-06T04:28:39;105.50;;;100.35;;
52978;SDS011;63430;53.186;6.598;2023-08-06T04:32:46;181.95;;;173.38;;
52978;SDS011;63430;53.186;6.598;2023-08-06T04:34:48;158.15;;;150.27;;
52978;SDS011;63430;53.186;6.598;2023-08-06T04:36:51;152.05;;;144.40;;
52978;SDS011;63430;53.186;6.598;2023-08-06T04:38:53;166.57;;;158.32;;
52978;SDS011;63430;53.186;6.598;2023-08-06T04:40:59;139.32;;;132.20;;
52978;SDS011;63430;53.186;6.598;2023-08-06T04:43:06;143.38;;;136.15;;
52978;SDS011;63430;53.186;6.598;2023-08-06T04:45:10;126.47;;;120.32;;
52978;SDS011;63430;53.186;6.598;2023-08-06T04:47:12;124.40;;;118.20;;
52978;SDS011;63430;53.186;6.598;2023-08-06T04:49:16;114.32;;;108.57;;
52978;SDS011;63430;53.186;6.598;2023-08-06T04:51:19;118.90;;;112.72;;
52978;SDS011;63430;53.186;6.598;2023-08-06T04:53:21;150.10;;;142.27;;
52978;SDS011;63430;53.186;6.598;2023-08-06T04:55:24;130.18;;;123.88;;
52978;SDS011;63430;53.186;6.598;2023-08-06T04:57:29;137.35;;;130.25;;
52978;SDS011;63430;53.186;6.598;2023-08-06T04:59:31;123.80;;;117.78;;
52978;SDS011;63430;53.186;6.598;2023-08-06T05:01:34;179.63;;;171.35;;
52978;SDS011;63430;53.186;6.598;2023-08-06T05:03:36;126.18;;;119.85;;
52978;SDS011;63430;53.186;6.598;2023-08-06T05:05:39;133.75;;;126.80;;
52978;SDS011;63430;53.186;6.598;2023-08-06T05:07:43;131.00;;;124.10;;
52978;SDS011;63430;53.186;6.598;2023-08-06T05:09:45;124.78;;;118.32;;
52978;SDS011;63430;53.186;6.598;2023-08-06T05:11:48;141.77;;;134.65;;
52978;SDS011;63430;53.186;6.598;2023-08-06T05:13:54;105.00;;;99.80;;
52978;SDS011;63430;53.186;6.598;2023-08-06T05:15:57;111.22;;;105.88;;
52978;SDS011;63430;53.186;6.598;2023-08-06T05:18:00;129.93;;;123.50;;
52978;SDS011;63430;53.186;6.598;2023-08-06T05:20:03;131.48;;;125.05;;
52978;SDS011;63430;53.186;6.598;2023-08-06T05:22:07;142.80;;;135.77;;
52978;SDS011;63430;53.186;6.598;2023-08-06T05:24:09;128.30;;;121.68;;
52978;SDS011;63430;53.186;6.598;2023-08-06T05:26:12;127.22;;;120.93;;
52978;SDS011;63430;53.186;6.598;2023-08-06T05:28:17;130.90;;;124.13;;
52978;SDS011;63430;53.186;6.598;2023-08-06T05:30:22;174.85;;;165.80;;
52978;SDS011;63430;53.186;6.598;2023-08-06T05:32:25;246.32;;;233.73;;
52978;SDS011;63430;53.186;6.598;2023-08-06T05:34:27;209.65;;;198.93;;
52978;SDS011;63430;53.186;6.598;2023-08-06T05:36:30;267.05;;;253.27;;
52978;SDS011;63430;53.186;6.598;2023-08-06T05:38:33;151.43;;;143.75;;
52978;SDS011;63430;53.186;6.598;2023-08-06T05:40:35;165.07;;;156.93;;
52978;SDS011;63430;53.186;6.598;2023-08-06T05:42:38;201.00;;;191.00;;
52978;SDS011;63430;53.186;6.598;2023-08-06T05:44:41;250.77;;;238.23;;
52978;SDS011;63430;53.186;6.598;2023-08-06T05:46:46;253.65;;;240.88;;
52978;SDS011;63430;53.186;6.598;2023-08-06T05:48:50;218.13;;;207.35;;
52978;SDS011;63430;53.186;6.598;2023-08-06T05:50:53;207.80;;;197.55;;
52978;SDS011;63430;53.186;6.598;2023-08-06T05:52:55;235.02;;;223.30;;
52978;SDS011;63430;53.186;6.598;2023-08-06T05:55:01;235.52;;;223.40;;
52978;SDS011;63430;53.186;6.598;2023-08-06T05:57:05;250.38;;;237.90;;
52978;SDS011;63430;53.186;6.598;2023-08-06T05:59:08;207.88;;;197.35;;
52978;SDS011;63430;53.186;6.598;2023-08-06T06:01:13;214.60;;;203.35;;
52978;SDS011;63430;53.186;6.598;2023-08-06T06:03:18;230.85;;;219.40;;
52978;SDS011;63430;53.186;6.598;2023-08-06T06:05:21;215.45;;;204.55;;
52978;SDS011;63430;53.186;6.598;2023-08-06T06:07:23;224.73;;;213.43;;
52978;SDS011;63430;53.186;6.598;2023-08-06T06:09:26;220.65;;;209.82;;
52978;SDS011;63430;53.186;6.598;2023-08-06T06:11:28;216.43;;;205.52;;
52978;SDS011;63430;53.186;6.598;2023-08-06T06:13:31;215.35;;;204.98;;
52978;SDS011;63430;53.186;6.598;2023-08-06T06:15:33;237.95;;;225.95;;
52978;SDS011;63430;53.186;6.598;2023-08-06T06:17:36;211.50;;;200.82;;
52978;SDS011;63430;53.186;6.598;2023-08-06T06:19:41;213.25;;;202.27;;
52978;SDS011;63430;53.186;6.598;2023-08-06T06:21:44;220.75;;;209.68;;
52978;SDS011;63430;53.186;6.598;2023-08-06T06:23:47;229.30;;;218.03;;
52978;SDS011;63430;53.186;6.598;2023-08-06T06:25:50;206.93;;;196.85;;
52978;SDS011;63430;53.186;6.598;2023-08-06T06:27:55;190.50;;;181.15;;
52978;SDS011;63430;53.186;6.598;2023-08-06T06:29:58;197.70;;;187.60;;
52978;SDS011;63430;53.186;6.598;2023-08-06T06:32:00;209.95;;;199.82;;
52978;SDS011;63430;53.186;6.598;2023-08-06T06:34:03;251.88;;;239.30;;
52978;SDS011;63430;53.186;6.598;2023-08-06T06:36:08;218.88;;;207.68;;
52978;SDS011;63430;53.186;6.598;2023-08-06T06:38:11;189.98;;;180.57;;
52978;SDS011;63430;53.186;6.598;2023-08-06T06:40:14;165.20;;;157.18;;
52978;SDS011;63430;53.186;6.598;2023-08-06T06:42:16;202.40;;;192.93;;
52978;SDS011;63430;53.186;6.598;2023-08-06T06:44:24;102.78;;;97.75;;
52978;SDS011;63430;53.186;6.598;2023-08-06T06:46:27;142.50;;;135.60;;
52978;SDS011;63430;53.186;6.598;2023-08-06T06:48:32;190.73;;;181.73;;
52978;SDS011;63430;53.186;6.598;2023-08-06T06:50:35;178.40;;;170.00;;
52978;SDS011;63430;53.186;6.598;2023-08-06T06:52:40;176.27;;;167.90;;
52978;SDS011;63430;53.186;6.598;2023-08-06T06:54:43;178.50;;;170.07;;
52978;SDS011;63430;53.186;6.598;2023-08-06T06:56:46;145.25;;;138.18;;
52978;SDS011;63430;53.186;6.598;2023-08-06T06:58:48;60.83;;;57.72;;
52978;SDS011;63430;53.186;6.598;2023-08-06T07:00:51;108.97;;;103.60;;
52978;SDS011;63430;53.186;6.598;2023-08-06T07:02:53;110.38;;;105.28;;
52978;SDS011;63430;53.186;6.598;2023-08-06T07:04:56;76.40;;;72.65;;
52978;SDS011;63430;53.186;6.598;2023-08-06T07:06:58;159.38;;;151.60;;
52978;SDS011;63430;53.186;6.598;2023-08-06T07:09:04;126.07;;;120.13;;
52978;SDS011;63430;53.186;6.598;2023-08-06T07:11:07;79.18;;;74.80;;
52978;SDS011;63430;53.186;6.598;2023-08-06T07:13:10;61.90;;;58.78;;
52978;SDS011;63430;53.186;6.598;2023-08-06T07:15:13;80.75;;;76.80;;
52978;SDS011;63430;53.186;6.598;2023-08-06T07:17:15;91.50;;;87.05;;
52978;SDS011;63430;53.186;6.598;2023-08-06T07:19:18;101.38;;;96.47;;
52978;SDS011;63430;53.186;6.598;2023-08-06T07:21:20;98.45;;;93.53;;
52978;SDS011;63430;53.186;6.598;2023-08-06T07:23:24;79.63;;;75.88;;
52978;SDS011;63430;53.186;6.598;2023-08-06T07:25:32;74.05;;;70.40;;
52978;SDS011;63430;53.186;6.598;2023-08-06T07:27:34;78.35;;;74.47;;
52978;SDS011;63430;53.186;6.598;2023-08-06T07:29:37;127.72;;;121.75;;
52978;SDS011;63430;53.186;6.598;2023-08-06T07:31:39;48.78;;;46.13;;
52978;SDS011;63430;53.186;6.598;2023-08-06T07:33:42;172.13;;;164.10;;
52978;SDS011;63430;53.186;6.598;2023-08-06T07:35:44;350.80;;;334.05;;
52978;SDS011;63430;53.186;6.598;2023-08-06T07:37:47;137.63;;;131.00;;
52978;SDS011;63430;53.186;6.598;2023-08-06T07:39:50;96.55;;;92.00;;
52978;SDS011;63430;53.186;6.598;2023-08-06T07:41:55;77.85;;;74.10;;
52978;SDS011;63430;53.186;6.598;2023-08-06T07:43:57;187.98;;;179.15;;
52978;SDS011;63430;53.186;6.598;2023-08-06T07:46:00;101.00;;;96.20;;
52978;SDS011;63430;53.186;6.598;2023-08-06T07:48:03;76.93;;;73.13;;
52978;SDS011;63430;53.186;6.598;2023-08-06T07:50:07;309.83;;;295.10;;
52978;SDS011;63430;53.186;6.598;2023-08-06T07:52:10;225.23;;;214.60;;
52978;SDS011;63430;53.186;6.598;2023-08-06T07:54:13;128.90;;;123.00;;
52978;SDS011;63430;53.186;6.598;2023-08-06T07:56:15;124.60;;;118.88;;
52978;SDS011;63430;53.186;6.598;2023-08-06T07:58:20;165.25;;;157.73;;
52978;SDS011;63430;53.186;6.598;2023-08-06T08:00:23;278.17;;;265.38;;
52978;SDS011;63430;53.186;6.598;2023-08-06T08:02:26;206.20;;;196.82;;
52978;SDS011;63430;53.186;6.598;2023-08-06T08:04:28;272.67;;;260.17;;
52978;SDS011;63430;53.186;6.598;2023-08-06T08:06:32;216.30;;;206.57;;
52978;SDS011;63430;53.186;6.598;2023-08-06T08:08:35;156.77;;;149.50;;
52978;SDS011;63430;53.186;6.598;2023-08-06T08:10:40;175.82;;;167.63;;
52978;SDS011;63430;53.186;6.598;2023-08-06T08:12:43;252.93;;;241.35;;
52978;SDS011;63430;53.186;6.598;2023-08-06T08:14:52;245.55;;;234.48;;
52978;SDS011;63430;53.186;6.598;2023-08-06T08:16:54;195.75;;;186.80;;
52978;SDS011;63430;53.186;6.598;2023-08-06T08:18:56;137.73;;;131.43;;
52978;SDS011;63430;53.186;6.598;2023-08-06T08:20:59;134.63;;;128.45;;
52978;SDS011;63430;53.186;6.598;2023-08-06T08:23:02;239.82;;;228.90;;
52978;SDS011;63430;53.186;6.598;2023-08-06T08:25:05;167.15;;;159.52;;
52978;SDS011;63430;53.186;6.598;2023-08-06T08:27:08;239.70;;;229.10;;
52978;SDS011;63430;53.186;6.598;2023-08-06T08:29:11;230.98;;;220.32;;
52978;SDS011;63430;53.186;6.598;2023-08-06T08:31:16;191.23;;;182.52;;
52978;SDS011;63430;53.186;6.598;2023-08-06T08:33:19;216.35;;;206.23;;
52978;SDS011;63430;53.186;6.598;2023-08-06T08:35:22;175.88;;;167.90;;
52978;SDS011;63430;53.186;6.598;2023-08-06T08:37:24;188.73;;;180.25;;
52978;SDS011;63430;53.186;6.598;2023-08-06T08:39:27;97.85;;;93.40;;
52978;SDS011;63430;53.186;6.598;2023-08-06T08:41:29;96.80;;;92.35;;
52978;SDS011;63430;53.186;6.598;2023-08-06T08:43:33;150.93;;;144.13;;
52978;SDS011;63430;53.186;6.598;2023-08-06T08:45:36;156.60;;;149.65;;
52978;SDS011;63430;53.186;6.598;2023-08-06T08:47:45;87.32;;;83.28;;
52978;SDS011;63430;53.186;6.598;2023-08-06T08:49:49;92.72;;;88.57;;
52978;SDS011;63430;53.186;6.598;2023-08-06T08:51:55;111.25;;;106.15;;
52978;SDS011;63430;53.186;6.598;2023-08-06T08:54:00;201.85;;;192.88;;
52978;SDS011;63430;53.186;6.598;2023-08-06T08:56:05;196.98;;;188.32;;
52978;SDS011;63430;53.186;6.598;2023-08-06T08:58:08;114.22;;;109.10;;
52978;SDS011;63430;53.186;6.598;2023-08-06T09:00:10;225.23;;;215.43;;
52978;SDS011;63430;53.186;6.598;2023-08-06T09:02:13;85.22;;;81.25;;
52978;SDS011;63430;53.186;6.598;2023-08-06T09:04:20;120.32;;;115.00;;
52978;SDS011;63430;53.186;6.598;2023-08-06T09:06:25;76.50;;;72.40;;
52978;SDS011;63430;53.186;6.598;2023-08-06T09:08:30;68.90;;;65.70;;
52978;SDS011;63430;53.186;6.598;2023-08-06T09:10:38;73.15;;;69.78;;
52978;SDS011;63430;53.186;6.598;2023-08-06T09:12:42;50.42;;;47.95;;
52978;SDS011;63430;53.186;6.598;2023-08-06T09:14:46;53.25;;;50.67;;
52978;SDS011;63430;53.186;6.598;2023-08-06T09:16:49;400.20;;;379.05;;
52978;SDS011;63430;53.186;6.598;2023-08-06T09:18:52;61.83;;;58.80;;
52978;SDS011;63430;53.186;6.598;2023-08-06T09:20:57;56.67;;;54.08;;
52978;SDS011;63430;53.186;6.598;2023-08-06T09:23:03;58.00;;;55.22;;
52978;SDS011;63430;53.186;6.598;2023-08-06T09:25:09;48.40;;;46.17;;
52978;SDS011;63430;53.186;6.598;2023-08-06T09:27:13;52.03;;;49.58;;
52978;SDS011;63430;53.186;6.598;2023-08-06T09:29:16;52.35;;;49.80;;
52978;SDS011;63430;53.186;6.598;2023-08-06T09:31:19;54.13;;;51.40;;
52978;SDS011;63430;53.186;6.598;2023-08-06T09:33:22;91.35;;;86.82;;
52978;SDS011;63430;53.186;6.598;2023-08-06T09:35:29;82.07;;;78.07;;
52978;SDS011;63430;53.186;6.598;2023-08-06T09:37:37;55.35;;;52.65;;
52978;SDS011;63430;53.186;6.598;2023-08-06T09:39:40;47.83;;;45.53;;
52978;SDS011;63430;53.186;6.598;2023-08-06T09:41:43;326.13;;;306.25;;
52978;SDS011;63430;53.186;6.598;2023-08-06T09:43:48;53.35;;;50.45;;
52978;SDS011;63430;53.186;6.598;2023-08-06T09:45:51;55.97;;;53.08;;
52978;SDS011;63430;53.186;6.598;2023-08-06T09:47:55;173.60;;;165.38;;
52978;SDS011;63430;53.186;6.598;2023-08-06T09:49:57;44.65;;;42.38;;
52978;SDS011;63430;53.186;6.598;2023-08-06T09:52:00;37.67;;;35.88;;
52978;SDS011;63430;53.186;6.598;2023-08-06T09:54:05;41.20;;;39.08;;
52978;SDS011;63430;53.186;6.598;2023-08-06T09:56:25;336.67;;;319.17;;
52978;SDS011;63430;53.186;6.598;2023-08-06T09:58:29;127.22;;;120.63;;
52978;SDS011;63430;53.186;6.598;2023-08-06T10:00:33;41.55;;;39.40;;
52978;SDS011;63430;53.186;6.598;2023-08-06T10:02:40;42.78;;;40.58;;
52978;SDS011;63430;53.186;6.598;2023-08-06T10:04:44;422.45;;;399.33;;
52978;SDS011;63430;53.186;6.598;2023-08-06T10:06:56;438.33;;;414.92;;
52978;SDS011;63430;53.186;6.598;2023-08-06T10:08:59;231.23;;;219.68;;
52978;SDS011;63430;53.186;6.598;2023-08-06T10:11:05;62.92;;;59.63;;
52978;SDS011;63430;53.186;6.598;2023-08-06T10:13:08;203.75;;;193.20;;
52978;SDS011;63430;53.186;6.598;2023-08-06T10:15:13;403.38;;;382.58;;
52978;SDS011;63430;53.186;6.598;2023-08-06T10:17:19;75.80;;;71.75;;
52978;SDS011;63430;53.186;6.598;2023-08-06T10:19:22;78.15;;;74.50;;
52978;SDS011;63430;53.186;6.598;2023-08-06T10:21:26;154.13;;;146.73;;
52978;SDS011;63430;53.186;6.598;2023-08-06T10:23:32;408.45;;;386.42;;
52978;SDS011;63430;53.186;6.598;2023-08-06T10:25:40;251.85;;;239.70;;
52978;SDS011;63430;53.186;6.598;2023-08-06T10:27:55;369.05;;;350.70;;
52978;SDS011;63430;53.186;6.598;2023-08-06T10:34:55;474.15;;;449.65;;
52978;SDS011;63430;53.186;6.598;2023-08-06T10:36:59;276.67;;;264.35;;
52978;SDS011;63430;53.186;6.598;2023-08-06T10:39:06;377.23;;;358.10;;
52978;SDS011;63430;53.186;6.598;2023-08-06T10:41:31;138.20;;;131.07;;
52978;SDS011;63430;53.186;6.598;2023-08-06T10:43:37;409.10;;;388.20;;
52978;SDS011;63430;53.186;6.598;2023-08-06T10:45:40;39.65;;;37.75;;
52978;SDS011;63430;53.186;6.598;2023-08-06T10:47:52;55.72;;;52.95;;
52978;SDS011;63430;53.186;6.598;2023-08-06T10:49:55;310.60;;;296.02;;
52978;SDS011;63430;53.186;6.598;2023-08-06T10:51:59;498.35;;;471.77;;
52978;SDS011;63430;53.186;6.598;2023-08-06T10:54:02;92.05;;;87.55;;
52978;SDS011;63430;53.186;6.598;2023-08-06T10:56:11;198.60;;;188.43;;
52978;SDS011;63430;53.186;6.598;2023-08-06T10:58:14;370.75;;;351.55;;
52978;SDS011;63430;53.186;6.598;2023-08-06T11:02:24;473.52;;;447.48;;
52978;SDS011;63430;53.186;6.598;2023-08-06T11:04:30;133.40;;;127.07;;
52978;SDS011;63430;53.186;6.598;2023-08-06T11:06:32;422.63;;;400.23;;
52978;SDS011;63430;53.186;6.598;2023-08-06T11:08:35;299.45;;;283.60;;
52978;SDS011;63430;53.186;6.598;2023-08-06T11:10:39;551.17;;;520.83;;
52978;SDS011;63430;53.186;6.598;2023-08-06T11:12:54;608.10;;;573.25;;
52978;SDS011;63430;53.186;6.598;2023-08-06T11:15:02;561.72;;;530.95;;
52978;SDS011;63430;53.186;6.598;2023-08-06T11:17:09;341.92;;;324.88;;
52978;SDS011;63430;53.186;6.598;2023-08-06T11:19:11;511.58;;;484.90;;
52978;SDS011;63430;53.186;6.598;2023-08-06T11:21:18;566.60;;;534.97;;
52978;SDS011;63430;53.186;6.598;2023-08-06T11:23:21;547.22;;;517.50;;
52978;SDS011;63430;53.186;6.598;2023-08-06T11:25:24;584.78;;;551.78;;
52978;SDS011;63430;53.186;6.598;2023-08-06T11:27:27;588.17;;;555.25;;
52978;SDS011;63430;53.186;6.598;2023-08-06T11:29:36;538.75;;;509.83;;
52978;SDS011;63430;53.186;6.598;2023-08-06T11:31:39;565.72;;;534.20;;
52978;SDS011;63430;53.186;6.598;2023-08-06T11:33:44;536.35;;;506.77;;
52978;SDS011;63430;53.186;6.598;2023-08-06T11:35:47;334.42;;;317.30;;
52978;SDS011;63430;53.186;6.598;2023-08-06T11:37:50;493.73;;;466.40;;
52978;SDS011;63430;53.186;6.598;2023-08-06T11:39:52;574.33;;;541.40;;
52978;SDS011;63430;53.186;6.598;2023-08-06T11:41:55;389.15;;;368.60;;
52978;SDS011;63430;53.186;6.598;2023-08-06T11:43:59;175.48;;;166.93;;
52978;SDS011;63430;53.186;6.598;2023-08-06T11:46:01;555.95;;;524.67;;
52978;SDS011;63430;53.186;6.598;2023-08-06T11:48:04;180.32;;;171.02;;
52978;SDS011;63430;53.186;6.598;2023-08-06T11:50:10;408.27;;;387.00;;
52978;SDS011;63430;53.186;6.598;2023-08-06T11:52:24;299.50;;;283.38;;
52978;SDS011;63430;53.186;6.598;2023-08-06T11:54:30;107.93;;;102.53;;
52978;SDS011;63430;53.186;6.598;2023-08-06T11:56:35;642.80;;;604.83;;
52978;SDS011;63430;53.186;6.598;2023-08-06T11:58:38;627.47;;;590.28;;
52978;SDS011;63430;53.186;6.598;2023-08-06T12:00:42;494.52;;;468.67;;